Time;durP1;ratioP1;P1;durP2;ratioP2;P2;SDS_P1;SDS_P2;PMS_P1;PMS_P2;Temp;Humidity;BMP_temperature;BMP_pressure;BME280_temperature;BME280_humidity;BME280_pressure;Samples;Min_cycle;Max_cycle;Signal;HPM_P1;HPM_P2
2021/08/29 00:02:16;;;;;;;8.93;4.40;;;13.30;44.10;;;;;;4415225;28;656711;-73
2021/08/29 00:05:04;;;;;;;9.80;3.73;;;13.30;45.30;;;;;;4396211;28;656801;-72
2021/08/29 00:07:52;;;;;;;7.50;4.27;;;13.40;45.40;;;;;;4413632;28;656628;-72
2021/08/29 00:10:40;;;;;;;10.73;4.17;;;13.40;47.40;;;;;;4391160;28;658113;-73
2021/08/29 00:13:27;;;;;;;8.97;4.40;;;13.40;48.00;;;;;;4391066;28;657928;-71
2021/08/29 00:16:16;;;;;;;7.90;4.20;;;13.40;48.30;;;;;;4412866;28;658074;-72
2021/08/29 00:19:04;;;;;;;7.73;4.30;;;13.40;50.10;;;;;;4395031;28;657233;-71
2021/08/29 00:21:52;;;;;;;7.67;3.80;;;13.40;56.20;;;;;;4405672;28;656838;-72
2021/08/29 00:24:39;;;;;;;10.63;4.60;;;13.40;55.40;;;;;;4388471;28;657944;-71
2021/08/29 00:27:27;;;;;;;8.73;4.70;;;13.40;65.60;;;;;;4416825;28;657522;-71
2021/08/29 00:30:15;;;;;;;8.20;4.40;;;13.40;76.30;;;;;;4430477;28;657660;-72
2021/08/29 00:33:04;;;;;;;8.93;4.43;;;13.40;84.60;;;;;;4412504;28;656734;-71
2021/08/29 00:35:53;;;;;;;8.70;4.40;;;13.40;91.90;;;;;;4430683;28;656619;-71
2021/08/29 00:38:40;;;;;;;8.00;4.33;;;13.40;97.50;;;;;;4427867;28;657777;-72
2021/08/29 00:41:28;;;;;;;7.60;4.20;;;13.30;99.90;;;;;;4411691;28;656320;-72
2021/08/29 00:44:16;;;;;;;9.37;4.53;;;13.30;99.90;;;;;;4431417;28;657323;-72
2021/08/29 00:47:06;;;;;;;7.77;4.50;;;13.20;99.90;;;;;;4406946;28;656647;-71
2021/08/29 00:49:55;;;;;;;9.70;4.30;;;13.20;99.90;;;;;;4412498;28;656486;-71
2021/08/29 00:52:43;;;;;;;10.77;4.67;;;13.20;99.90;;;;;;4404550;28;656393;-71
2021/08/29 00:55:30;;;;;;;11.90;4.70;;;13.20;99.90;;;;;;4433672;28;658321;-71
2021/08/29 00:58:19;;;;;;;9.27;4.80;;;13.20;99.90;;;;;;4403634;28;657727;-71
2021/08/29 01:01:06;;;;;;;9.50;4.37;;;13.20;99.90;;;;;;4429902;28;656664;-71
2021/08/29 01:03:55;;;;;;;6.77;4.23;;;13.10;99.90;;;;;;4408751;28;658067;-71
2021/08/29 01:06:46;;;;;;;12.17;3.90;;;13.10;99.90;;;;;;4412272;28;656764;-71
2021/08/29 01:09:34;;;;;;;14.17;4.43;;;13.10;99.90;;;;;;4407535;28;657525;-72
2021/08/29 01:12:23;;;;;;;9.00;4.67;;;13.10;99.90;;;;;;4429427;28;657808;-72
2021/08/29 01:15:11;;;;;;;8.10;4.37;;;13.10;99.90;;;;;;4405700;28;656955;-72
2021/08/29 01:17:58;;;;;;;8.33;4.40;;;13.00;99.90;;;;;;4402889;28;656795;-71
2021/08/29 01:20:52;;;;;;;7.90;4.37;;;13.10;99.90;;;;;;4435434;28;656284;-72
2021/08/29 01:23:42;;;;;;;6.10;4.00;;;13.00;99.90;;;;;;4385413;28;657038;-71
2021/08/29 01:26:32;;;;;;;7.87;4.40;;;13.00;99.90;;;;;;4406111;28;657922;-72
2021/08/29 01:29:24;;;;;;;6.13;4.00;;;13.00;99.90;;;;;;4412615;28;657046;-72
2021/08/29 01:32:11;;;;;;;8.93;4.27;;;13.00;99.90;;;;;;4408185;28;656553;-72
2021/08/29 01:34:59;;;;;;;11.93;4.00;;;13.00;99.90;;;;;;4406144;28;657295;-72
2021/08/29 01:37:46;;;;;;;8.27;3.67;;;13.00;99.90;;;;;;4427253;28;657386;-72
2021/08/29 01:40:34;;;;;;;8.53;4.00;;;13.00;99.90;;;;;;4411951;28;658077;-72
2021/08/29 01:43:22;;;;;;;12.03;4.13;;;12.90;99.90;;;;;;4420725;28;656582;-72
2021/08/29 01:46:10;;;;;;;6.57;3.60;;;12.90;99.90;;;;;;4401240;28;658828;-72
2021/08/29 01:48:58;;;;;;;8.67;4.00;;;12.90;99.90;;;;;;4412080;28;656415;-72
2021/08/29 01:51:45;;;;;;;8.57;3.87;;;12.90;99.90;;;;;;4423850;28;657770;-72
2021/08/29 01:54:33;;;;;;;8.57;3.83;;;12.90;99.90;;;;;;4408595;28;657163;-72
2021/08/29 01:57:21;;;;;;;7.93;3.70;;;12.90;99.90;;;;;;4433489;28;657279;-72
2021/08/29 02:00:09;;;;;;;5.73;3.47;;;12.80;99.90;;;;;;4408713;28;656727;-72
2021/08/29 02:02:58;;;;;;;8.60;3.97;;;12.80;99.90;;;;;;4428614;28;657069;-72
2021/08/29 02:05:45;;;;;;;6.97;3.77;;;12.90;99.90;;;;;;4411381;28;657997;-72
2021/08/29 02:08:33;;;;;;;7.13;3.87;;;12.80;99.90;;;;;;4414111;28;656794;-72
2021/08/29 02:11:21;;;;;;;5.40;3.50;;;12.80;99.90;;;;;;4433932;28;657139;-72
2021/08/29 02:14:10;;;;;;;7.40;3.40;;;12.80;99.90;;;;;;4410076;28;658144;-72
2021/08/29 02:16:57;;;;;;;5.50;3.40;;;12.80;99.90;;;;;;4407316;28;656407;-71
2021/08/29 02:19:46;;;;;;;8.63;3.60;;;12.80;99.90;;;;;;4436232;28;657799;-72
2021/08/29 02:22:34;;;;;;;4.90;3.43;;;12.80;99.90;;;;;;4411124;28;657620;-72
2021/08/29 02:25:22;;;;;;;6.87;3.40;;;12.80;99.90;;;;;;4417970;28;656379;-71
2021/08/29 02:28:10;;;;;;;4.67;3.07;;;12.70;99.90;;;;;;4429442;28;657596;-72
2021/08/29 02:30:57;;;;;;;4.87;3.00;;;12.80;99.90;;;;;;4414300;28;656796;-71
2021/08/29 02:33:45;;;;;;;6.30;3.27;;;12.80;99.90;;;;;;4433592;28;658237;-72
2021/08/29 02:36:34;;;;;;;6.53;3.30;;;12.80;99.90;;;;;;4404728;28;656408;-71
2021/08/29 02:39:21;;;;;;;5.80;3.30;;;12.70;99.90;;;;;;4433606;28;656327;-72
2021/08/29 02:42:09;;;;;;;4.97;3.13;;;12.70;99.90;;;;;;4411030;28;657760;-72
2021/08/29 02:44:56;;;;;;;4.80;2.87;;;12.70;99.90;;;;;;4424850;28;656254;-71
2021/08/29 02:47:44;;;;;;;5.87;3.20;;;12.80;99.90;;;;;;4410784;28;657641;-72
2021/08/29 02:50:32;;;;;;;4.20;2.90;;;12.70;99.90;;;;;;4433124;28;656885;-72
2021/08/29 02:53:21;;;;;;;5.23;2.90;;;12.70;99.90;;;;;;4408917;28;656677;-72
2021/08/29 02:56:08;;;;;;;3.60;2.93;;;12.80;99.90;;;;;;4414066;28;656532;-72
2021/08/29 02:58:56;;;;;;;4.33;3.10;;;12.70;99.90;;;;;;4429453;28;656412;-72
2021/08/29 03:01:44;;;;;;;5.18;2.95;;;12.80;99.90;;;;;;4411413;28;657587;-72
2021/08/29 03:04:32;;;;;;;4.27;2.77;;;12.70;99.90;;;;;;4428152;28;657117;-72
2021/08/29 03:07:20;;;;;;;5.50;3.00;;;12.70;99.90;;;;;;4430015;28;657568;-72
2021/08/29 03:10:11;;;;;;;8.90;2.77;;;12.70;99.90;;;;;;4409848;28;656864;-72
2021/08/29 03:12:59;;;;;;;5.93;3.03;;;12.70;99.90;;;;;;4410301;28;656605;-72
2021/08/29 03:15:47;;;;;;;4.23;2.60;;;12.70;99.90;;;;;;4427956;28;656111;-71
2021/08/29 03:18:35;;;;;;;4.77;2.93;;;12.70;99.90;;;;;;4421712;28;657201;-72
2021/08/29 03:21:23;;;;;;;5.23;2.93;;;12.80;99.90;;;;;;4406717;28;657853;-72
2021/08/29 03:24:12;;;;;;;4.20;2.67;;;12.70;99.90;;;;;;4431410;28;657371;-72
2021/08/29 03:27:01;;;;;;;4.03;2.70;;;12.70;99.90;;;;;;4403029;28;657156;-72
2021/08/29 03:29:48;;;;;;;7.57;3.47;;;12.70;99.90;;;;;;4413972;28;657213;-72
2021/08/29 03:32:36;;;;;;;7.93;3.90;;;12.70;99.90;;;;;;4431640;28;657250;-72
2021/08/29 03:35:24;;;;;;;5.30;3.33;;;12.80;99.90;;;;;;4410160;28;657993;-72
2021/08/29 03:38:12;;;;;;;7.77;4.30;;;12.80;99.90;;;;;;4431054;28;656467;-72
2021/08/29 03:40:59;;;;;;;10.70;4.70;;;12.80;99.90;;;;;;4409838;28;657977;-71
2021/08/29 03:43:48;;;;;;;8.60;4.63;;;12.70;99.90;;;;;;4427399;28;657435;-71
2021/08/29 03:46:36;;;;;;;9.57;5.20;;;12.70;99.90;;;;;;4409194;28;656726;-71
2021/08/29 03:49:25;;;;;;;10.47;4.73;;;12.70;99.90;;;;;;4406114;28;656611;-71
2021/08/29 03:52:14;;;;;;;7.67;3.63;;;12.70;99.90;;;;;;4412353;28;658263;-70
2021/08/29 03:55:01;;;;;;;5.57;3.40;;;12.80;99.90;;;;;;4431397;28;656521;-71
2021/08/29 03:57:50;;;;;;;5.37;3.37;;;12.70;99.90;;;;;;4408930;28;657960;-71
2021/08/29 04:00:40;;;;;;;8.30;4.30;;;12.70;99.90;;;;;;4412953;28;656552;-71
2021/08/29 04:03:28;;;;;;;8.05;3.63;;;12.70;99.90;;;;;;4415976;28;656639;-70
2021/08/29 04:06:37;;;;;;;7.40;3.40;;;12.70;99.90;;;;;;4429191;28;657706;-71
2021/08/29 04:09:24;;;;;;;6.40;3.63;;;12.70;99.90;;;;;;4382858;28;657376;-71
2021/08/29 04:12:12;;;;;;;6.77;4.07;;;12.60;99.90;;;;;;4426613;28;657040;-71
2021/08/29 04:15:00;;;;;;;7.10;3.30;;;12.60;99.90;;;;;;4413456;28;657293;-71
2021/08/29 04:17:49;;;;;;;7.07;3.67;;;12.60;99.90;;;;;;4411686;28;656754;-70
2021/08/29 04:20:36;;;;;;;6.97;3.67;;;12.50;99.90;;;;;;4435628;28;655888;-70
2021/08/29 04:23:24;;;;;;;5.77;4.10;;;12.50;99.90;;;;;;4394278;28;657751;-71
2021/08/29 04:26:13;;;;;;;11.20;5.20;;;12.50;99.90;;;;;;4421943;28;656356;-70
2021/08/29 04:29:01;;;;;;;5.63;3.77;;;12.50;99.90;;;;;;4432743;28;658402;-71
2021/08/29 04:31:51;;;;;;;7.47;4.15;;;12.40;99.90;;;;;;4409262;28;656684;-70
2021/08/29 04:34:40;;;;;;;6.93;4.40;;;12.40;99.90;;;;;;4412842;28;656741;-71
2021/08/29 04:37:28;;;;;;;10.73;4.50;;;12.50;99.90;;;;;;4412523;28;656008;-70
2021/08/29 04:40:15;;;;;;;6.70;4.40;;;12.50;99.90;;;;;;4427145;28;657522;-71
2021/08/29 04:43:02;;;;;;;7.73;4.77;;;12.50;99.90;;;;;;4408377;28;656400;-70
2021/08/29 04:45:50;;;;;;;9.13;4.33;;;12.50;99.90;;;;;;4425830;28;657382;-70
2021/08/29 04:48:37;;;;;;;7.60;4.70;;;12.50;99.90;;;;;;4406037;28;656921;-70
2021/08/29 04:51:26;;;;;;;10.17;5.00;;;12.50;99.90;;;;;;4434186;28;657350;-71
2021/08/29 04:54:14;;;;;;;10.03;5.23;;;12.50;99.90;;;;;;4407414;28;658513;-71
2021/08/29 04:57:01;;;;;;;9.70;5.83;;;12.50;99.90;;;;;;4429828;28;658901;-71
2021/08/29 04:59:49;;;;;;;7.13;4.00;;;12.50;99.90;;;;;;4407919;28;657963;-71
2021/08/29 05:02:36;;;;;;;9.40;4.30;;;12.60;99.90;;;;;;4431680;28;657892;-71
2021/08/29 05:05:24;;;;;;;9.73;4.37;;;12.60;99.90;;;;;;4408820;28;657829;-70
2021/08/29 05:08:13;;;;;;;6.93;4.17;;;12.50;99.90;;;;;;4430784;28;656608;-71
2021/08/29 05:11:00;;;;;;;7.70;4.43;;;12.50;99.90;;;;;;4406924;28;657289;-71
2021/08/29 05:13:48;;;;;;;7.17;4.63;;;12.50;99.90;;;;;;4410149;28;656482;-70
2021/08/29 05:16:36;;;;;;;6.77;4.70;;;12.60;99.90;;;;;;4431655;28;656757;-71
2021/08/29 05:19:23;;;;;;;10.63;5.10;;;12.60;99.90;;;;;;4409221;28;656882;-71
2021/08/29 05:22:10;;;;;;;13.30;6.07;;;12.60;99.90;;;;;;4428887;28;658874;-71
2021/08/29 05:24:59;;;;;;;10.67;5.60;;;12.70;99.90;;;;;;4409861;28;657764;-70
2021/08/29 05:27:47;;;;;;;9.37;5.97;;;12.80;99.90;;;;;;4416578;28;657561;-70
2021/08/29 05:30:35;;;;;;;13.47;7.27;;;12.80;99.90;;;;;;4428518;28;657413;-71
2021/08/29 05:33:22;;;;;;;17.33;8.43;;;12.90;99.90;;;;;;4410677;28;658099;-70
2021/08/29 05:36:10;;;;;;;18.93;9.50;;;12.90;99.90;;;;;;4431191;28;658615;-71
2021/08/29 05:38:57;;;;;;;17.83;8.33;;;13.00;99.90;;;;;;4410806;28;658516;-70
2021/08/29 05:41:46;;;;;;;17.87;9.67;;;13.00;99.90;;;;;;4433371;28;658636;-71
2021/08/29 05:44:34;;;;;;;20.27;10.63;;;13.10;99.90;;;;;;4405694;28;658557;-71
2021/08/29 05:47:21;;;;;;;20.53;11.37;;;13.10;99.90;;;;;;4428329;28;658423;-70
2021/08/29 05:50:10;;;;;;;20.10;11.60;;;13.20;99.90;;;;;;4405505;28;660012;-71
2021/08/29 05:52:57;;;;;;;29.10;15.00;;;13.10;99.90;;;;;;4409455;28;659186;-70
2021/08/29 05:55:45;;;;;;;31.83;18.03;;;13.20;99.90;;;;;;4428564;28;660768;-71
2021/08/29 05:58:34;;;;;;;31.77;18.60;;;13.20;99.90;;;;;;4408555;28;658853;-70
2021/08/29 06:01:21;;;;;;;34.83;21.13;;;13.20;99.90;;;;;;4425220;28;658953;-71
2021/08/29 06:04:09;;;;;;;38.37;21.13;;;13.30;99.90;;;;;;4402578;28;659895;-71
2021/08/29 06:06:57;;;;;;;39.10;22.30;;;13.40;99.90;;;;;;4428438;28;658534;-71
2021/08/29 06:09:44;;;;;;;49.20;27.67;;;13.50;99.90;;;;;;4404749;28;661068;-71
2021/08/29 06:12:32;;;;;;;52.13;27.57;;;13.50;99.90;;;;;;4420157;28;658157;-70
2021/08/29 06:15:21;;;;;;;49.23;27.33;;;13.40;99.90;;;;;;4421311;28;659681;-71
2021/08/29 06:18:09;;;;;;;50.83;29.20;;;13.40;99.90;;;;;;4410257;28;660475;-71
2021/08/29 06:20:56;;;;;;;53.27;29.17;;;13.40;99.90;;;;;;4427934;28;658703;-71
2021/08/29 06:23:44;;;;;;;51.90;29.87;;;13.40;99.90;;;;;;4405359;28;659455;-71
2021/08/29 06:26:31;;;;;;;51.37;28.33;;;13.40;99.90;;;;;;4424527;28;658575;-70
2021/08/29 06:29:19;;;;;;;57.27;31.30;;;13.40;99.90;;;;;;4403872;28;659838;-69
2021/08/29 06:32:28;;;;;;;51.43;31.33;;;13.50;99.90;;;;;;4445558;28;658619;-67
2021/08/29 06:35:16;;;;;;;59.20;31.87;;;13.50;99.90;;;;;;4405083;28;659149;-68
2021/08/29 06:38:03;;;;;;;59.20;32.30;;;13.50;99.90;;;;;;4408857;28;658493;-67
2021/08/29 06:40:51;;;;;;;56.70;31.77;;;13.70;99.90;;;;;;4430625;28;659242;-68
2021/08/29 06:43:38;;;;;;;51.23;30.87;;;13.80;99.90;;;;;;4407221;28;658887;-67
2021/08/29 06:46:26;;;;;;;40.73;22.00;;;13.80;99.90;;;;;;4430939;28;658563;-68
2021/08/29 06:49:15;;;;;;;51.40;24.85;;;13.80;99.90;;;;;;4405983;28;658808;-67
2021/08/29 06:52:02;;;;;;;38.87;22.70;;;13.60;99.90;;;;;;4408364;28;658535;-68
2021/08/29 06:54:50;;;;;;;41.43;20.97;;;13.50;99.90;;;;;;4429056;28;660098;-67
2021/08/29 06:57:37;;;;;;;37.93;20.57;;;13.60;99.90;;;;;;4405002;28;658788;-67
2021/08/29 07:00:25;;;;;;;39.57;19.27;;;13.80;99.90;;;;;;4428785;28;660054;-67
2021/08/29 07:03:13;;;;;;;35.63;17.83;;;14.00;99.90;;;;;;4404600;28;658368;-67
2021/08/29 07:06:02;;;;;;;32.17;18.63;;;14.10;99.90;;;;;;4433769;28;658993;-67
2021/08/29 07:08:49;;;;;;;29.13;17.33;;;14.20;99.90;;;;;;4407236;28;659715;-68
2021/08/29 07:11:37;;;;;;;31.00;16.07;;;14.40;99.90;;;;;;4421998;28;659091;-67
2021/08/29 07:14:24;;;;;;;27.90;15.50;;;14.50;99.90;;;;;;4405591;28;659159;-67
2021/08/29 07:17:14;;;;;;;28.37;15.03;;;14.60;99.90;;;;;;4416552;28;658703;-68
2021/08/29 07:20:02;;;;;;;30.17;14.80;;;14.60;99.90;;;;;;4430846;28;658983;-67
2021/08/29 07:22:51;;;;;;;29.37;14.07;;;14.80;99.90;;;;;;4411571;28;659740;-68
2021/08/29 07:25:38;;;;;;;30.20;13.67;;;14.90;99.90;;;;;;4412026;28;659402;-67
2021/08/29 07:28:26;;;;;;;27.17;13.57;;;15.10;99.90;;;;;;4431025;28;659329;-68
2021/08/29 07:31:13;;;;;;;27.40;14.47;;;15.20;99.90;;;;;;4403644;28;658865;-67
2021/08/29 07:34:01;;;;;;;31.50;13.80;;;15.30;99.90;;;;;;4427352;28;658837;-67
2021/08/29 07:36:48;;;;;;;31.47;13.63;;;15.40;99.90;;;;;;4398748;28;658705;-67
2021/08/29 07:39:37;;;;;;;24.97;13.03;;;15.50;99.90;;;;;;4428573;28;659058;-68
2021/08/29 07:42:25;;;;;;;27.90;13.37;;;15.40;99.90;;;;;;4400523;28;659435;-68
2021/08/29 07:45:13;;;;;;;23.83;12.13;;;15.50;99.90;;;;;;4411238;28;658477;-68
2021/08/29 07:48:00;;;;;;;24.33;12.00;;;15.60;99.90;;;;;;4425393;28;659281;-69
2021/08/29 07:50:48;;;;;;;20.83;11.33;;;15.70;99.90;;;;;;4397242;28;659246;-70
2021/08/29 07:53:36;;;;;;;24.80;12.03;;;15.80;99.90;;;;;;4430770;28;659658;-69
2021/08/29 07:56:25;;;;;;;21.97;10.63;;;15.90;99.90;;;;;;4409201;28;659075;-69
2021/08/29 07:59:12;;;;;;;19.00;10.40;;;16.00;99.90;;;;;;4413397;28;658641;-69
2021/08/29 08:02:00;;;;;;;23.33;11.67;;;15.90;99.90;;;;;;4427409;28;658886;-70
2021/08/29 08:04:48;;;;;;;26.73;12.43;;;16.00;99.90;;;;;;4407614;28;658705;-69
2021/08/29 08:07:35;;;;;;;22.67;12.73;;;16.20;99.90;;;;;;4429166;28;659586;-70
2021/08/29 08:10:25;;;;;;;26.10;13.47;;;16.40;99.90;;;;;;4404269;28;658414;-68
2021/08/29 08:13:14;;;;;;;25.83;13.83;;;16.60;99.90;;;;;;4404789;28;658416;-69
2021/08/29 08:16:02;;;;;;;30.10;12.83;;;16.80;99.90;;;;;;4424633;28;658745;-69
2021/08/29 08:18:50;;;;;;;28.23;12.57;;;16.80;75.40;;;;;;4432822;28;660260;-68
2021/08/29 08:21:38;;;;;;;22.67;11.47;;;16.80;79.00;;;;;;4411165;28;658931;-68
2021/08/29 08:24:25;;;;;;;31.33;12.20;;;17.00;84.50;;;;;;4433188;28;658911;-68
2021/08/29 08:27:13;;;;;;;22.20;11.60;;;17.10;80.00;;;;;;4409377;28;658456;-68
2021/08/29 08:30:02;;;;;;;20.53;11.07;;;17.10;75.10;;;;;;4429282;28;659019;-68
2021/08/29 08:32:50;;;;;;;22.17;9.90;;;17.20;65.50;;;;;;4406283;28;659737;-68
2021/08/29 08:35:37;;;;;;;19.10;9.30;;;17.40;80.90;;;;;;4416788;28;657471;-68
2021/08/29 08:38:25;;;;;;;14.87;7.87;;;17.50;67.30;;;;;;4417897;28;659130;-68
2021/08/29 08:41:12;;;;;;;14.80;7.70;;;17.50;37.30;;;;;;4411531;28;657677;-68
2021/08/29 08:44:00;;;;;;;20.93;8.60;;;17.60;36.10;;;;;;4420464;28;658966;-68
2021/08/29 08:46:49;;;;;;;17.10;8.40;;;17.70;30.00;;;;;;4410306;28;658145;-68
2021/08/29 08:49:37;;;;;;;16.80;9.20;;;17.50;1.00;;;;;;4413231;28;658172;-68
2021/08/29 08:52:26;;;;;;;15.27;8.40;;;17.40;1.00;;;;;;4435561;28;657761;-68
2021/08/29 08:55:14;;;;;;;18.63;8.50;;;17.30;1.00;;;;;;4412991;28;656254;-68
2021/08/29 08:58:01;;;;;;;15.90;8.02;;;17.40;1.00;;;;;;4427771;28;656339;-68
2021/08/29 09:00:49;;;;;;;14.23;7.50;;;17.60;1.00;;;;;;4393563;28;657089;-68
2021/08/29 09:03:38;;;;;;;11.67;6.97;;;17.70;1.00;;;;;;4430156;28;656505;-68
2021/08/29 09:06:25;;;;;;;14.17;7.37;;;17.80;1.00;;;;;;4408646;28;657694;-68
2021/08/29 09:09:13;;;;;;;12.33;7.00;;;17.90;1.00;;;;;;4412177;28;656302;-68
2021/08/29 09:12:00;;;;;;;14.77;6.67;;;18.00;1.00;;;;;;4430640;28;657177;-68
2021/08/29 09:14:49;;;;;;;11.20;6.60;;;18.10;1.00;;;;;;4402305;28;656400;-68
2021/08/29 09:17:38;;;;;;;13.83;6.90;;;18.20;1.00;;;;;;4435379;28;656549;-68
2021/08/29 09:20:29;;;;;;;13.47;6.77;;;18.20;1.00;;;;;;4411860;28;657407;-68
2021/08/29 09:23:19;;;;;;;10.43;6.10;;;17.90;1.00;;;;;;4408142;28;656923;-68
2021/08/29 09:26:07;;;;;;;9.93;5.97;;;18.00;1.00;;;;;;4407608;28;656513;-68
2021/08/29 09:28:56;;;;;;;10.23;5.90;;;18.00;99.90;;;;;;4403442;28;656582;-68
2021/08/29 09:31:44;;;;;;;9.87;5.43;;;18.10;99.90;;;;;;4411202;28;657215;-68
2021/08/29 09:34:32;;;;;;;9.43;5.33;;;18.20;99.90;;;;;;4422656;28;656766;-68
2021/08/29 09:37:24;;;;;;;9.17;5.07;;;18.70;99.90;;;;;;4430329;28;657569;-68
2021/08/29 09:40:15;;;;;;;11.60;5.30;;;18.90;99.90;;;;;;4408513;28;657075;-68
2021/08/29 09:43:04;;;;;;;8.53;4.70;;;19.10;99.90;;;;;;4381837;28;657682;-68
2021/08/29 09:45:51;;;;;;;11.47;5.07;;;19.30;99.90;;;;;;4414894;28;656686;-68
2021/08/29 09:48:39;;;;;;;9.37;5.67;;;19.70;99.90;;;;;;4410893;28;657845;-68
2021/08/29 09:51:27;;;;;;;9.63;5.13;;;19.80;99.90;;;;;;4431126;28;656878;-68
2021/08/29 09:54:31;;;;;;;10.00;5.40;;;19.80;99.90;;;;;;4407540;28;656580;-68
2021/08/29 09:57:18;;;;;;;9.50;5.10;;;20.00;96.50;;;;;;4383802;28;658125;-68
2021/08/29 10:00:09;;;;;;;7.83;4.97;;;19.90;1.00;;;;;;4426381;28;657129;-68
2021/08/29 10:03:07;;;;;;;16.07;5.73;;;19.90;1.00;;;;;;4404872;28;656837;-69
2021/08/29 10:06:11;;;;;;;9.37;4.90;;;19.80;1.00;;;;;;4381094;28;656896;-69
2021/08/29 10:08:59;;;;;;;7.17;4.60;;;19.60;1.00;;;;;;4386853;28;656816;-69
2021/08/29 10:11:48;;;;;;;7.17;4.20;;;19.40;1.00;;;;;;4432764;28;655868;-68
2021/08/29 10:14:36;;;;;;;11.73;4.73;;;19.20;1.00;;;;;;4409254;28;655846;-69
2021/08/29 10:17:24;;;;;;;6.40;4.27;;;19.00;1.00;;;;;;4414782;28;657317;-69
2021/08/29 10:20:13;;;;;;;8.80;4.87;;;18.90;1.00;;;;;;4434999;28;656046;-69
2021/08/29 10:23:00;;;;;;;9.57;5.37;;;18.80;1.00;;;;;;4412567;28;655986;-68
2021/08/29 10:25:48;;;;;;;8.63;4.70;;;18.80;1.00;;;;;;4411864;28;655839;-69
2021/08/29 10:28:39;;;;;;;8.43;4.80;;;18.80;1.00;;;;;;4434710;28;655875;-69
2021/08/29 10:31:29;;;;;;;8.30;4.57;;;18.80;36.40;;;;;;4411713;28;655456;-68
2021/08/29 10:34:17;;;;;;;8.93;5.07;;;19.00;52.00;;;;;;4406340;28;656875;-68
2021/08/29 10:37:05;;;;;;;7.70;4.77;;;19.20;1.00;;;;;;4407875;28;657842;-68
2021/08/29 10:39:52;;;;;;;7.00;4.80;;;19.20;1.00;;;;;;4415778;28;655745;-68
2021/08/29 10:42:41;;;;;;;7.10;4.30;;;19.30;16.30;;;;;;4434635;28;656688;-68
2021/08/29 10:45:30;;;;;;;7.63;3.97;;;19.30;23.60;;;;;;4408200;28;656410;-68
2021/08/29 10:48:18;;;;;;;5.97;3.70;;;19.10;1.00;;;;;;4415224;28;656503;-68
2021/08/29 10:51:05;;;;;;;6.67;3.77;;;19.10;1.00;;;;;;4430093;28;655937;-68
2021/08/29 10:53:53;;;;;;;5.93;3.70;;;19.10;1.00;;;;;;4416029;28;656510;-68
2021/08/29 10:56:41;;;;;;;5.20;3.50;;;19.10;1.00;;;;;;4438405;28;655223;-68
2021/08/29 10:59:29;;;;;;;6.20;3.53;;;19.30;1.00;;;;;;4414030;28;655506;-68
2021/08/29 11:02:18;;;;;;;6.70;4.00;;;19.70;1.00;;;;;;4433348;28;655911;-68
2021/08/29 11:05:06;;;;;;;4.37;3.03;;;20.30;1.00;;;;;;4405541;28;656262;-69
2021/08/29 11:07:54;;;;;;;5.93;3.40;;;20.80;1.00;;;;;;4410150;28;655566;-69
2021/08/29 11:10:46;;;;;;;5.53;3.40;;;20.90;99.90;;;;;;4434829;28;655860;-69
2021/08/29 11:13:41;;;;;;;6.27;3.10;;;20.80;99.90;;;;;;4392236;28;657256;-68
2021/08/29 11:16:28;;;;;;;4.87;3.40;;;21.10;99.90;;;;;;4386795;28;657234;-68
2021/08/29 11:19:18;;;;;;;4.13;3.10;;;21.10;46.40;;;;;;4433641;28;656230;-68
2021/08/29 11:22:16;;;;;;;7.60;3.27;;;21.00;1.00;;;;;;4410818;28;657772;-68
2021/08/29 11:25:05;;;;;;;4.13;3.00;;;20.80;1.00;;;;;;4415662;28;655762;-68
2021/08/29 11:28:04;;;;;;;6.17;3.07;;;20.30;1.00;;;;;;4415701;28;656125;-68
2021/08/29 11:30:51;;;;;;;4.53;2.90;;;19.90;1.00;;;;;;4411513;28;655705;-68
2021/08/29 11:33:39;;;;;;;4.73;3.00;;;19.90;1.00;;;;;;4415852;28;655972;-68
2021/08/29 11:36:29;;;;;;;4.17;2.53;;;19.90;1.00;;;;;;4434437;28;656264;-68
2021/08/29 11:39:32;;;;;;;5.60;3.10;;;19.90;1.00;;;;;;4411589;28;655129;-68
2021/08/29 11:42:20;;;;;;;3.80;2.70;;;19.80;1.00;;;;;;4388612;28;655836;-68
2021/08/29 11:45:12;;;;;;;4.93;2.60;;;19.70;1.00;;;;;;4398123;28;655422;-68
2021/08/29 11:48:00;;;;;;;4.77;2.50;;;19.70;1.60;;;;;;4394838;28;656116;-68
2021/08/29 11:50:47;;;;;;;7.27;2.63;;;19.70;99.90;;;;;;4401932;28;655365;-68
2021/08/29 11:53:46;;;;;;;3.90;2.40;;;20.20;99.90;;;;;;4416661;28;656801;-69
2021/08/29 11:56:34;;;;;;;2.80;2.20;;;21.30;99.90;;;;;;4370542;28;657463;-68
2021/08/29 11:59:26;;;;;;;3.30;2.10;;;21.80;1.00;;;;;;4407973;28;656108;-68
2021/08/29 12:02:14;;;;;;;2.80;2.03;;;21.50;7.40;;;;;;4397969;28;655395;-69
2021/08/29 12:05:08;;;;;;;2.97;2.23;;;21.10;1.00;;;;;;4416133;28;656169;-68
2021/08/29 12:08:01;;;;;;;3.10;2.20;;;21.00;1.00;;;;;;4393993;28;655423;-69
2021/08/29 12:10:51;;;;;;;2.50;2.03;;;21.10;1.00;;;;;;4371096;28;655958;-68
2021/08/29 12:13:39;;;;;;;1.93;1.73;;;21.00;1.00;;;;;;4393536;28;655505;-68
2021/08/29 12:16:26;;;;;;;2.87;1.73;;;21.00;1.00;;;;;;4416678;28;655745;-68
2021/08/29 12:19:15;;;;;;;2.17;1.80;;;20.70;99.90;;;;;;4393929;28;656652;-68
2021/08/29 12:22:04;;;;;;;4.30;2.00;;;20.50;1.00;;;;;;4400330;28;656396;-68
2021/08/29 12:24:51;;;;;;;5.40;2.63;;;20.60;1.00;;;;;;4416099;28;656332;-68
2021/08/29 12:27:40;;;;;;;6.90;3.37;;;20.40;1.00;;;;;;4397498;28;655620;-68
2021/08/29 12:30:30;;;;;;;7.17;3.20;;;19.80;1.00;;;;;;4397222;28;655679;-68
2021/08/29 12:33:18;;;;;;;8.10;4.10;;;19.30;66.70;;;;;;4395484;28;655177;-68
2021/08/29 12:36:11;;;;;;;7.17;3.77;;;18.40;99.90;;;;;;4415104;28;657308;-68
2021/08/29 12:39:00;;;;;;;8.43;3.70;;;17.90;1.00;;;;;;4390312;28;656770;-68
2021/08/29 12:41:48;;;;;;;7.60;3.77;;;18.20;99.90;;;;;;4396906;28;655641;-68
2021/08/29 12:44:37;;;;;;;6.70;3.80;;;18.10;99.90;;;;;;4431234;28;657911;-68
2021/08/29 12:47:24;;;;;;;5.47;3.97;;;18.20;99.90;;;;;;4413431;28;658252;-68
2021/08/29 12:50:13;;;;;;;7.53;4.10;;;18.20;99.90;;;;;;4423074;28;656594;-68
2021/08/29 12:53:03;;;;;;;5.70;3.73;;;18.20;99.90;;;;;;4432741;28;657446;-68
2021/08/29 12:55:51;;;;;;;5.47;3.70;;;18.10;99.90;;;;;;4409985;28;657999;-68
2021/08/29 12:58:38;;;;;;;11.90;3.60;;;18.20;99.90;;;;;;4413648;28;656410;-68
2021/08/29 13:01:27;;;;;;;5.80;3.63;;;18.00;99.90;;;;;;4430964;28;658023;-68
2021/08/29 13:04:15;;;;;;;7.83;4.00;;;17.80;99.90;;;;;;4408871;28;656978;-68
2021/08/29 13:07:06;;;;;;;10.37;5.07;;;17.90;99.90;;;;;;4412885;28;656457;-68
2021/08/29 13:09:56;;;;;;;7.93;4.37;;;18.30;1.00;;;;;;4411889;28;657540;-68
2021/08/29 13:12:44;;;;;;;8.97;4.43;;;18.70;99.90;;;;;;4414628;28;655342;-68
2021/08/29 13:15:31;;;;;;;8.40;4.33;;;19.30;99.90;;;;;;4431864;28;656398;-68
2021/08/29 13:18:26;;;;;;;10.43;4.10;;;19.70;25.90;;;;;;4413069;28;656887;-68
2021/08/29 13:21:26;;;;;;;10.23;4.10;;;20.30;1.00;;;;;;4388919;28;658528;-68
2021/08/29 13:24:23;;;;;;;9.17;4.00;;;21.00;1.00;;;;;;4386096;28;657203;-68
2021/08/29 13:27:17;;;;;;;8.23;4.00;;;21.30;99.90;;;;;;4409678;28;655755;-68
2021/08/29 13:30:06;;;;;;;8.03;4.20;;;21.60;1.00;;;;;;4412926;28;656427;-68
2021/08/29 13:32:53;;;;;;;11.60;3.77;;;22.10;1.00;;;;;;4414069;28;655510;-68
2021/08/29 13:35:43;;;;;;;8.13;4.07;;;21.80;99.90;;;;;;4430144;28;656541;-68
2021/08/29 13:38:31;;;;;;;6.40;3.80;;;21.70;99.90;;;;;;4408633;28;657013;-68
2021/08/29 13:41:19;;;;;;;7.93;3.73;;;21.50;99.90;;;;;;4412648;28;656957;-68
2021/08/29 13:44:07;;;;;;;8.23;3.93;;;21.00;99.90;;;;;;4419616;28;656365;-68
2021/08/29 13:47:03;;;;;;;6.80;3.70;;;20.70;99.90;;;;;;4391110;28;657567;-68
2021/08/29 13:49:51;;;;;;;8.47;4.10;;;20.30;99.90;;;;;;4393592;28;657011;-68
2021/08/29 13:52:42;;;;;;;6.30;3.70;;;19.90;1.00;;;;;;4398764;28;656249;-68
2021/08/29 13:55:30;;;;;;;7.13;3.90;;;19.50;1.00;;;;;;4396125;28;656000;-68
2021/08/29 13:58:17;;;;;;;8.50;4.00;;;19.50;1.00;;;;;;4402113;28;656031;-68
2021/08/29 14:01:05;;;;;;;6.67;3.63;;;19.30;69.10;;;;;;4418509;28;656567;-68
2021/08/29 14:03:52;;;;;;;7.37;4.37;;;19.40;1.00;;;;;;4399220;28;656462;-68
2021/08/29 14:06:40;;;;;;;9.07;4.20;;;19.30;99.90;;;;;;4423202;28;655965;-68
2021/08/29 14:09:30;;;;;;;7.60;4.60;;;18.90;99.90;;;;;;4398583;28;656469;-68
2021/08/29 14:12:18;;;;;;;8.13;4.40;;;19.00;1.00;;;;;;4398444;28;656746;-68
2021/08/29 14:15:06;;;;;;;8.43;4.43;;;18.90;1.00;;;;;;4418704;28;656372;-68
2021/08/29 14:17:54;;;;;;;9.73;4.63;;;18.80;1.00;;;;;;4399536;28;656194;-68
2021/08/29 14:20:42;;;;;;;11.33;5.00;;;18.50;1.00;;;;;;4417749;28;655813;-68
2021/08/29 14:23:29;;;;;;;8.30;4.73;;;18.50;99.90;;;;;;4398066;28;656935;-68